sensor_id;sensor_type;location;lat;lon;timestamp;P1;durP1;ratioP1;P2;durP2;ratioP2
43801;SDS011;29429;51.074;13.764;2023-07-30T00:00:52;2.15;;;1.75;;
43801;SDS011;29429;51.074;13.764;2023-07-30T00:03:20;2.97;;;1.40;;
43801;SDS011;29429;51.074;13.764;2023-07-30T00:05:54;3.63;;;2.35;;
43801;SDS011;29429;51.074;13.764;2023-07-30T00:08:22;3.92;;;2.38;;
43801;SDS011;29429;51.074;13.764;2023-07-30T00:10:50;2.95;;;1.98;;
43801;SDS011;29429;51.074;13.764;2023-07-30T00:13:18;3.00;;;1.85;;
43801;SDS011;29429;51.074;13.764;2023-07-30T00:15:46;3.58;;;2.47;;
43801;SDS011;29429;51.074;13.764;2023-07-30T00:18:14;2.85;;;2.22;;
43801;SDS011;29429;51.074;13.764;2023-07-30T00:20:42;4.88;;;2.55;;
43801;SDS011;29429;51.074;13.764;2023-07-30T00:23:09;2.85;;;2.10;;
43801;SDS011;29429;51.074;13.764;2023-07-30T00:25:37;4.70;;;2.50;;
43801;SDS011;29429;51.074;13.764;2023-07-30T00:28:04;3.28;;;2.60;;
43801;SDS011;29429;51.074;13.764;2023-07-30T00:30:32;3.03;;;2.65;;
43801;SDS011;29429;51.074;13.764;2023-07-30T00:37:54;3.85;;;2.10;;
43801;SDS011;29429;51.074;13.764;2023-07-30T00:40:22;4.32;;;2.75;;
43801;SDS011;29429;51.074;13.764;2023-07-30T00:42:50;3.17;;;2.58;;
43801;SDS011;29429;51.074;13.764;2023-07-30T00:45:17;4.43;;;2.80;;
43801;SDS011;29429;51.074;13.764;2023-07-30T00:47:45;5.15;;;3.13;;
43801;SDS011;29429;51.074;13.764;2023-07-30T00:50:13;3.25;;;2.55;;
43801;SDS011;29429;51.074;13.764;2023-07-30T00:52:42;4.32;;;2.90;;
43801;SDS011;29429;51.074;13.764;2023-07-30T00:55:10;3.45;;;2.63;;
43801;SDS011;29429;51.074;13.764;2023-07-30T00:57:38;5.95;;;2.80;;
43801;SDS011;29429;51.074;13.764;2023-07-30T01:00:07;3.58;;;2.63;;
43801;SDS011;29429;51.074;13.764;2023-07-30T01:02:36;4.80;;;3.05;;
43801;SDS011;29429;51.074;13.764;2023-07-30T01:05:04;6.10;;;3.22;;
43801;SDS011;29429;51.074;13.764;2023-07-30T01:07:31;3.90;;;2.50;;
43801;SDS011;29429;51.074;13.764;2023-07-30T01:09:59;3.35;;;2.80;;
43801;SDS011;29429;51.074;13.764;2023-07-30T01:12:29;4.97;;;2.90;;
43801;SDS011;29429;51.074;13.764;2023-07-30T01:14:59;4.40;;;2.83;;
43801;SDS011;29429;51.074;13.764;2023-07-30T01:17:27;3.55;;;2.53;;
43801;SDS011;29429;51.074;13.764;2023-07-30T01:19:55;5.47;;;2.88;;
43801;SDS011;29429;51.074;13.764;2023-07-30T01:22:23;2.92;;;2.35;;
43801;SDS011;29429;51.074;13.764;2023-07-30T01:24:50;3.20;;;2.60;;
43801;SDS011;29429;51.074;13.764;2023-07-30T01:27:31;5.00;;;2.92;;
43801;SDS011;29429;51.074;13.764;2023-07-30T01:30:06;3.10;;;2.28;;
43801;SDS011;29429;51.074;13.764;2023-07-30T01:32:41;4.28;;;3.00;;
43801;SDS011;29429;51.074;13.764;2023-07-30T01:35:09;4.75;;;2.72;;
43801;SDS011;29429;51.074;13.764;2023-07-30T01:37:39;4.07;;;3.13;;
43801;SDS011;29429;51.074;13.764;2023-07-30T01:40:07;4.20;;;2.88;;
43801;SDS011;29429;51.074;13.764;2023-07-30T01:42:36;4.22;;;2.88;;
43801;SDS011;29429;51.074;13.764;2023-07-30T01:45:04;3.70;;;3.15;;
43801;SDS011;29429;51.074;13.764;2023-07-30T01:47:32;5.97;;;3.60;;
43801;SDS011;29429;51.074;13.764;2023-07-30T01:50:00;5.10;;;3.20;;
43801;SDS011;29429;51.074;13.764;2023-07-30T01:52:28;4.45;;;2.88;;
43801;SDS011;29429;51.074;13.764;2023-07-30T01:54:55;6.78;;;3.03;;
43801;SDS011;29429;51.074;13.764;2023-07-30T01:57:24;4.22;;;2.58;;
43801;SDS011;29429;51.074;13.764;2023-07-30T01:59:52;3.85;;;2.55;;
43801;SDS011;29429;51.074;13.764;2023-07-30T02:02:20;3.78;;;2.70;;
43801;SDS011;29429;51.074;13.764;2023-07-30T02:04:47;4.03;;;2.78;;
43801;SDS011;29429;51.074;13.764;2023-07-30T02:07:15;2.97;;;2.38;;
43801;SDS011;29429;51.074;13.764;2023-07-30T02:09:43;5.47;;;2.90;;
43801;SDS011;29429;51.074;13.764;2023-07-30T02:12:10;4.07;;;2.72;;
43801;SDS011;29429;51.074;13.764;2023-07-30T02:14:38;4.47;;;3.05;;
43801;SDS011;29429;51.074;13.764;2023-07-30T02:17:05;6.15;;;2.97;;
43801;SDS011;29429;51.074;13.764;2023-07-30T02:19:32;6.28;;;3.10;;
43801;SDS011;29429;51.074;13.764;2023-07-30T02:22:00;5.20;;;2.70;;
43801;SDS011;29429;51.074;13.764;2023-07-30T02:24:27;4.63;;;2.97;;
43801;SDS011;29429;51.074;13.764;2023-07-30T02:26:55;3.03;;;2.53;;
43801;SDS011;29429;51.074;13.764;2023-07-30T02:29:22;3.95;;;2.80;;
43801;SDS011;29429;51.074;13.764;2023-07-30T02:31:49;6.28;;;2.88;;
43801;SDS011;29429;51.074;13.764;2023-07-30T02:34:17;6.45;;;2.92;;
43801;SDS011;29429;51.074;13.764;2023-07-30T02:36:44;4.43;;;2.72;;
43801;SDS011;29429;51.074;13.764;2023-07-30T02:39:12;6.07;;;2.95;;
43801;SDS011;29429;51.074;13.764;2023-07-30T02:41:39;3.80;;;2.72;;
43801;SDS011;29429;51.074;13.764;2023-07-30T02:44:06;5.40;;;2.90;;
43801;SDS011;29429;51.074;13.764;2023-07-30T02:46:34;3.03;;;2.40;;
43801;SDS011;29429;51.074;13.764;2023-07-30T02:49:01;8.15;;;2.88;;
43801;SDS011;29429;51.074;13.764;2023-07-30T02:51:28;5.05;;;3.17;;
43801;SDS011;29429;51.074;13.764;2023-07-30T02:54:03;5.85;;;2.63;;
43801;SDS011;29429;51.074;13.764;2023-07-30T02:56:31;5.03;;;2.72;;
43801;SDS011;29429;51.074;13.764;2023-07-30T02:58:59;3.47;;;3.03;;
43801;SDS011;29429;51.074;13.764;2023-07-30T03:01:27;3.90;;;2.72;;
43801;SDS011;29429;51.074;13.764;2023-07-30T03:03:56;10.27;;;2.53;;
43801;SDS011;29429;51.074;13.764;2023-07-30T03:06:23;4.53;;;2.95;;
43801;SDS011;29429;51.074;13.764;2023-07-30T03:08:50;4.32;;;2.53;;
43801;SDS011;29429;51.074;13.764;2023-07-30T03:11:18;4.40;;;2.70;;
43801;SDS011;29429;51.074;13.764;2023-07-30T03:13:45;3.42;;;2.55;;
43801;SDS011;29429;51.074;13.764;2023-07-30T03:16:12;4.50;;;2.60;;
43801;SDS011;29429;51.074;13.764;2023-07-30T03:18:40;3.85;;;2.50;;
43801;SDS011;29429;51.074;13.764;2023-07-30T03:21:07;3.55;;;2.47;;
43801;SDS011;29429;51.074;13.764;2023-07-30T03:23:35;3.75;;;2.28;;
43801;SDS011;29429;51.074;13.764;2023-07-30T03:26:03;3.72;;;3.03;;
43801;SDS011;29429;51.074;13.764;2023-07-30T03:28:30;4.55;;;2.60;;
43801;SDS011;29429;51.074;13.764;2023-07-30T03:30:58;4.70;;;2.55;;
43801;SDS011;29429;51.074;13.764;2023-07-30T03:33:25;3.22;;;2.50;;
43801;SDS011;29429;51.074;13.764;2023-07-30T03:35:53;5.57;;;2.75;;
43801;SDS011;29429;51.074;13.764;2023-07-30T03:38:21;3.95;;;2.50;;
43801;SDS011;29429;51.074;13.764;2023-07-30T03:40:48;3.83;;;2.53;;
43801;SDS011;29429;51.074;13.764;2023-07-30T03:43:16;2.67;;;2.25;;
43801;SDS011;29429;51.074;13.764;2023-07-30T03:45:43;6.00;;;3.10;;
43801;SDS011;29429;51.074;13.764;2023-07-30T03:48:10;3.50;;;2.83;;
43801;SDS011;29429;51.074;13.764;2023-07-30T03:50:39;4.43;;;2.95;;
43801;SDS011;29429;51.074;13.764;2023-07-30T03:53:06;3.13;;;2.53;;
43801;SDS011;29429;51.074;13.764;2023-07-30T03:55:33;3.97;;;3.08;;
43801;SDS011;29429;51.074;13.764;2023-07-30T03:58:01;3.92;;;2.58;;
43801;SDS011;29429;51.074;13.764;2023-07-30T04:00:29;3.80;;;2.50;;
43801;SDS011;29429;51.074;13.764;2023-07-30T04:02:56;2.97;;;2.67;;
43801;SDS011;29429;51.074;13.764;2023-07-30T04:05:24;3.65;;;2.88;;
43801;SDS011;29429;51.074;13.764;2023-07-30T04:07:51;3.75;;;2.90;;
43801;SDS011;29429;51.074;13.764;2023-07-30T04:10:18;3.67;;;2.72;;
43801;SDS011;29429;51.074;13.764;2023-07-30T04:12:46;3.13;;;2.70;;
43801;SDS011;29429;51.074;13.764;2023-07-30T04:15:14;4.20;;;3.00;;
43801;SDS011;29429;51.074;13.764;2023-07-30T04:17:42;6.72;;;3.03;;
43801;SDS011;29429;51.074;13.764;2023-07-30T04:20:09;4.78;;;2.78;;
43801;SDS011;29429;51.074;13.764;2023-07-30T04:22:37;3.50;;;2.70;;
43801;SDS011;29429;51.074;13.764;2023-07-30T04:25:08;4.28;;;3.13;;
43801;SDS011;29429;51.074;13.764;2023-07-30T04:27:37;4.88;;;3.00;;
43801;SDS011;29429;51.074;13.764;2023-07-30T04:30:05;2.55;;;2.33;;
43801;SDS011;29429;51.074;13.764;2023-07-30T04:32:33;3.00;;;2.45;;
43801;SDS011;29429;51.074;13.764;2023-07-30T04:35:01;5.10;;;2.90;;
43801;SDS011;29429;51.074;13.764;2023-07-30T04:37:29;5.30;;;3.15;;
43801;SDS011;29429;51.074;13.764;2023-07-30T04:39:57;2.85;;;2.58;;
43801;SDS011;29429;51.074;13.764;2023-07-30T04:42:27;3.00;;;2.70;;
43801;SDS011;29429;51.074;13.764;2023-07-30T04:44:54;5.45;;;2.60;;
43801;SDS011;29429;51.074;13.764;2023-07-30T04:47:21;4.30;;;2.60;;
43801;SDS011;29429;51.074;13.764;2023-07-30T04:49:49;6.55;;;2.97;;
43801;SDS011;29429;51.074;13.764;2023-07-30T04:52:18;3.25;;;2.60;;
43801;SDS011;29429;51.074;13.764;2023-07-30T04:54:46;3.28;;;2.78;;
43801;SDS011;29429;51.074;13.764;2023-07-30T04:57:13;4.03;;;2.90;;
43801;SDS011;29429;51.074;13.764;2023-07-30T04:59:40;3.83;;;2.60;;
43801;SDS011;29429;51.074;13.764;2023-07-30T05:02:08;4.72;;;2.80;;
43801;SDS011;29429;51.074;13.764;2023-07-30T05:04:36;7.18;;;3.10;;
43801;SDS011;29429;51.074;13.764;2023-07-30T05:07:03;3.35;;;3.03;;
43801;SDS011;29429;51.074;13.764;2023-07-30T05:09:31;5.13;;;3.08;;
43801;SDS011;29429;51.074;13.764;2023-07-30T05:11:58;6.28;;;3.90;;
43801;SDS011;29429;51.074;13.764;2023-07-30T05:14:25;3.45;;;2.83;;
43801;SDS011;29429;51.074;13.764;2023-07-30T05:16:53;4.05;;;2.90;;
43801;SDS011;29429;51.074;13.764;2023-07-30T05:19:20;4.13;;;2.97;;
43801;SDS011;29429;51.074;13.764;2023-07-30T05:21:47;3.78;;;2.92;;
43801;SDS011;29429;51.074;13.764;2023-07-30T05:24:15;4.30;;;2.90;;
43801;SDS011;29429;51.074;13.764;2023-07-30T05:26:42;4.05;;;2.67;;
43801;SDS011;29429;51.074;13.764;2023-07-30T05:29:09;4.97;;;2.80;;
43801;SDS011;29429;51.074;13.764;2023-07-30T05:31:37;5.40;;;3.00;;
43801;SDS011;29429;51.074;13.764;2023-07-30T05:34:04;4.72;;;2.60;;
43801;SDS011;29429;51.074;13.764;2023-07-30T05:36:32;3.33;;;2.40;;
43801;SDS011;29429;51.074;13.764;2023-07-30T05:38:59;6.57;;;2.95;;
43801;SDS011;29429;51.074;13.764;2023-07-30T05:41:26;4.20;;;2.53;;
43801;SDS011;29429;51.074;13.764;2023-07-30T05:43:54;2.65;;;2.40;;
43801;SDS011;29429;51.074;13.764;2023-07-30T05:46:21;3.38;;;2.40;;
43801;SDS011;29429;51.074;13.764;2023-07-30T05:48:48;3.00;;;2.50;;
43801;SDS011;29429;51.074;13.764;2023-07-30T05:51:16;3.75;;;2.72;;
43801;SDS011;29429;51.074;13.764;2023-07-30T05:53:43;3.65;;;2.75;;
43801;SDS011;29429;51.074;13.764;2023-07-30T05:56:11;3.10;;;2.50;;
43801;SDS011;29429;51.074;13.764;2023-07-30T05:58:40;4.40;;;2.50;;
43801;SDS011;29429;51.074;13.764;2023-07-30T06:01:07;3.80;;;2.58;;
43801;SDS011;29429;51.074;13.764;2023-07-30T06:03:35;3.25;;;2.03;;
43801;SDS011;29429;51.074;13.764;2023-07-30T06:06:04;2.30;;;2.10;;
43801;SDS011;29429;51.074;13.764;2023-07-30T06:08:31;2.88;;;2.30;;
43801;SDS011;29429;51.074;13.764;2023-07-30T06:11:02;2.95;;;2.60;;
43801;SDS011;29429;51.074;13.764;2023-07-30T06:13:30;3.38;;;2.40;;
43801;SDS011;29429;51.074;13.764;2023-07-30T06:15:57;2.50;;;2.28;;
43801;SDS011;29429;51.074;13.764;2023-07-30T06:18:24;4.60;;;2.35;;
43801;SDS011;29429;51.074;13.764;2023-07-30T06:20:52;4.07;;;2.30;;
43801;SDS011;29429;51.074;13.764;2023-07-30T06:23:19;2.47;;;2.05;;
43801;SDS011;29429;51.074;13.764;2023-07-30T06:25:46;3.17;;;2.30;;
43801;SDS011;29429;51.074;13.764;2023-07-30T06:28:14;3.70;;;2.03;;
43801;SDS011;29429;51.074;13.764;2023-07-30T06:30:59;4.28;;;2.40;;
43801;SDS011;29429;51.074;13.764;2023-07-30T06:34:02;4.50;;;1.92;;
43801;SDS011;29429;51.074;13.764;2023-07-30T06:36:30;2.58;;;1.98;;
43801;SDS011;29429;51.074;13.764;2023-07-30T06:38:57;3.53;;;2.30;;
43801;SDS011;29429;51.074;13.764;2023-07-30T06:41:24;3.38;;;2.25;;
43801;SDS011;29429;51.074;13.764;2023-07-30T06:43:52;2.47;;;2.00;;
43801;SDS011;29429;51.074;13.764;2023-07-30T06:46:19;2.10;;;1.90;;
43801;SDS011;29429;51.074;13.764;2023-07-30T06:48:46;3.00;;;1.90;;
43801;SDS011;29429;51.074;13.764;2023-07-30T06:51:14;4.25;;;2.10;;
43801;SDS011;29429;51.074;13.764;2023-07-30T06:53:44;3.55;;;2.13;;
43801;SDS011;29429;51.074;13.764;2023-07-30T06:56:12;3.80;;;2.30;;
43801;SDS011;29429;51.074;13.764;2023-07-30T06:58:39;2.13;;;1.80;;
43801;SDS011;29429;51.074;13.764;2023-07-30T07:01:07;2.33;;;2.08;;
43801;SDS011;29429;51.074;13.764;2023-07-30T07:03:34;2.45;;;1.95;;
43801;SDS011;29429;51.074;13.764;2023-07-30T07:06:02;2.63;;;2.00;;
43801;SDS011;29429;51.074;13.764;2023-07-30T07:08:29;4.28;;;1.85;;
43801;SDS011;29429;51.074;13.764;2023-07-30T07:10:56;2.47;;;2.03;;
43801;SDS011;29429;51.074;13.764;2023-07-30T07:13:24;2.90;;;2.03;;
43801;SDS011;29429;51.074;13.764;2023-07-30T07:15:51;3.30;;;1.70;;
43801;SDS011;29429;51.074;13.764;2023-07-30T07:18:18;4.50;;;2.38;;
43801;SDS011;29429;51.074;13.764;2023-07-30T07:20:46;2.80;;;1.90;;
43801;SDS011;29429;51.074;13.764;2023-07-30T07:23:13;3.38;;;2.08;;
43801;SDS011;29429;51.074;13.764;2023-07-30T07:25:41;4.43;;;2.13;;
43801;SDS011;29429;51.074;13.764;2023-07-30T07:28:09;4.10;;;2.08;;
43801;SDS011;29429;51.074;13.764;2023-07-30T07:30:37;2.30;;;2.08;;
43801;SDS011;29429;51.074;13.764;2023-07-30T07:33:04;3.45;;;1.80;;
43801;SDS011;29429;51.074;13.764;2023-07-30T07:35:32;4.47;;;2.28;;
43801;SDS011;29429;51.074;13.764;2023-07-30T07:37:59;2.05;;;1.80;;
43801;SDS011;29429;51.074;13.764;2023-07-30T07:40:27;2.03;;;1.77;;
43801;SDS011;29429;51.074;13.764;2023-07-30T07:42:54;3.38;;;2.17;;
43801;SDS011;29429;51.074;13.764;2023-07-30T07:45:22;4.32;;;1.90;;
43801;SDS011;29429;51.074;13.764;2023-07-30T07:47:51;3.50;;;1.90;;
43801;SDS011;29429;51.074;13.764;2023-07-30T07:50:18;2.88;;;2.10;;
43801;SDS011;29429;51.074;13.764;2023-07-30T07:52:46;2.28;;;1.73;;
43801;SDS011;29429;51.074;13.764;2023-07-30T07:55:13;2.20;;;1.80;;
43801;SDS011;29429;51.074;13.764;2023-07-30T07:57:40;2.97;;;1.75;;
43801;SDS011;29429;51.074;13.764;2023-07-30T08:00:08;4.45;;;1.90;;
43801;SDS011;29429;51.074;13.764;2023-07-30T08:02:40;3.45;;;1.90;;
43801;SDS011;29429;51.074;13.764;2023-07-30T08:05:07;2.53;;;1.75;;
43801;SDS011;29429;51.074;13.764;2023-07-30T08:07:35;4.00;;;1.80;;
43801;SDS011;29429;51.074;13.764;2023-07-30T08:10:02;3.75;;;1.98;;
43801;SDS011;29429;51.074;13.764;2023-07-30T08:12:31;2.63;;;1.98;;
43801;SDS011;29429;51.074;13.764;2023-07-30T08:14:59;3.90;;;1.90;;
43801;SDS011;29429;51.074;13.764;2023-07-30T08:17:26;4.90;;;1.95;;
43801;SDS011;29429;51.074;13.764;2023-07-30T08:19:54;3.72;;;1.80;;
43801;SDS011;29429;51.074;13.764;2023-07-30T08:22:21;4.90;;;1.90;;
43801;SDS011;29429;51.074;13.764;2023-07-30T08:24:49;3.92;;;2.03;;
43801;SDS011;29429;51.074;13.764;2023-07-30T08:27:16;1.90;;;1.55;;
43801;SDS011;29429;51.074;13.764;2023-07-30T08:29:43;3.70;;;1.70;;
43801;SDS011;29429;51.074;13.764;2023-07-30T08:32:11;3.03;;;1.30;;
43801;SDS011;29429;51.074;13.764;2023-07-30T08:34:39;2.50;;;1.55;;
43801;SDS011;29429;51.074;13.764;2023-07-30T08:37:06;3.63;;;1.63;;
43801;SDS011;29429;51.074;13.764;2023-07-30T08:39:33;2.28;;;1.77;;
43801;SDS011;29429;51.074;13.764;2023-07-30T08:42:00;2.47;;;1.50;;
43801;SDS011;29429;51.074;13.764;2023-07-30T08:44:29;2.95;;;1.65;;
43801;SDS011;29429;51.074;13.764;2023-07-30T08:46:56;3.58;;;1.40;;
43801;SDS011;29429;51.074;13.764;2023-07-30T08:49:28;2.08;;;1.23;;
43801;SDS011;29429;51.074;13.764;2023-07-30T08:52:00;4.18;;;1.85;;
43801;SDS011;29429;51.074;13.764;2023-07-30T08:54:30;2.05;;;1.50;;
43801;SDS011;29429;51.074;13.764;2023-07-30T08:56:58;2.80;;;1.40;;
43801;SDS011;29429;51.074;13.764;2023-07-30T08:59:33;2.08;;;1.33;;
43801;SDS011;29429;51.074;13.764;2023-07-30T09:02:10;4.80;;;1.60;;
43801;SDS011;29429;51.074;13.764;2023-07-30T09:04:45;1.50;;;1.30;;
43801;SDS011;29429;51.074;13.764;2023-07-30T09:07:16;1.80;;;1.60;;
43801;SDS011;29429;51.074;13.764;2023-07-30T09:09:43;2.70;;;1.67;;
43801;SDS011;29429;51.074;13.764;2023-07-30T09:12:16;2.53;;;1.52;;
43801;SDS011;29429;51.074;13.764;2023-07-30T09:14:46;3.40;;;1.15;;
43801;SDS011;29429;51.074;13.764;2023-07-30T09:17:23;1.98;;;1.38;;
43801;SDS011;29429;51.074;13.764;2023-07-30T09:19:54;2.08;;;1.58;;
43801;SDS011;29429;51.074;13.764;2023-07-30T09:26:49;2.75;;;1.30;;
43801;SDS011;29429;51.074;13.764;2023-07-30T09:29:16;2.20;;;1.45;;
43801;SDS011;29429;51.074;13.764;2023-07-30T09:31:53;1.77;;;1.45;;
43801;SDS011;29429;51.074;13.764;2023-07-30T09:34:25;2.17;;;1.30;;
43801;SDS011;29429;51.074;13.764;2023-07-30T09:36:53;1.90;;;1.30;;
43801;SDS011;29429;51.074;13.764;2023-07-30T09:39:26;3.30;;;1.92;;
43801;SDS011;29429;51.074;13.764;2023-07-30T09:41:59;1.90;;;1.63;;
43801;SDS011;29429;51.074;13.764;2023-07-30T09:44:27;1.55;;;1.23;;
43801;SDS011;29429;51.074;13.764;2023-07-30T09:50:29;2.95;;;1.50;;
43801;SDS011;29429;51.074;13.764;2023-07-30T09:55:30;1.95;;;1.35;;
43801;SDS011;29429;51.074;13.764;2023-07-30T09:57:58;1.83;;;1.40;;
43801;SDS011;29429;51.074;13.764;2023-07-30T10:00:27;2.28;;;1.50;;
43801;SDS011;29429;51.074;13.764;2023-07-30T10:02:58;2.40;;;1.80;;
43801;SDS011;29429;51.074;13.764;2023-07-30T10:05:32;1.95;;;1.63;;
43801;SDS011;29429;51.074;13.764;2023-07-30T10:08:12;1.83;;;1.60;;
43801;SDS011;29429;51.074;13.764;2023-07-30T10:10:55;3.23;;;1.20;;
43801;SDS011;29429;51.074;13.764;2023-07-30T10:13:24;2.83;;;1.30;;
43801;SDS011;29429;51.074;13.764;2023-07-30T10:15:53;2.03;;;1.30;;
43801;SDS011;29429;51.074;13.764;2023-07-30T10:18:21;1.65;;;1.30;;
43801;SDS011;29429;51.074;13.764;2023-07-30T10:20:53;2.08;;;1.50;;
43801;SDS011;29429;51.074;13.764;2023-07-30T10:23:29;1.85;;;1.48;;
43801;SDS011;29429;51.074;13.764;2023-07-30T10:26:03;2.90;;;1.50;;
43801;SDS011;29429;51.074;13.764;2023-07-30T10:28:37;1.92;;;1.42;;
43801;SDS011;29429;51.074;13.764;2023-07-30T10:31:09;2.33;;;1.55;;
43801;SDS011;29429;51.074;13.764;2023-07-30T10:33:50;1.75;;;1.58;;
43801;SDS011;29429;51.074;13.764;2023-07-30T10:36:30;2.65;;;1.33;;
43801;SDS011;29429;51.074;13.764;2023-07-30T10:41:45;2.17;;;1.40;;
43801;SDS011;29429;51.074;13.764;2023-07-30T10:44:27;1.40;;;1.20;;
43801;SDS011;29429;51.074;13.764;2023-07-30T10:46:58;2.30;;;1.17;;
43801;SDS011;29429;51.074;13.764;2023-07-30T10:49:28;1.23;;;1.13;;
43801;SDS011;29429;51.074;13.764;2023-07-30T10:51:56;1.35;;;1.20;;
43801;SDS011;29429;51.074;13.764;2023-07-30T10:54:24;2.50;;;1.50;;
43801;SDS011;29429;51.074;13.764;2023-07-30T10:56:52;1.15;;;1.02;;
43801;SDS011;29429;51.074;13.764;2023-07-30T10:59:24;1.88;;;1.13;;
43801;SDS011;29429;51.074;13.764;2023-07-30T11:02:04;1.48;;;1.20;;
43801;SDS011;29429;51.074;13.764;2023-07-30T11:04:41;2.85;;;1.20;;
43801;SDS011;29429;51.074;13.764;2023-07-30T11:07:17;1.38;;;1.13;;
43801;SDS011;29429;51.074;13.764;2023-07-30T11:09:57;1.92;;;1.10;;
43801;SDS011;29429;51.074;13.764;2023-07-30T11:12:52;2.60;;;1.30;;
43801;SDS011;29429;51.074;13.764;2023-07-30T11:16:13;1.98;;;1.00;;
43801;SDS011;29429;51.074;13.764;2023-07-30T11:22:35;2.63;;;1.40;;
43801;SDS011;29429;51.074;13.764;2023-07-30T11:25:27;1.10;;;0.85;;
43801;SDS011;29429;51.074;13.764;2023-07-30T11:27:58;1.10;;;0.88;;
43801;SDS011;29429;51.074;13.764;2023-07-30T11:33:18;2.05;;;0.95;;
43801;SDS011;29429;51.074;13.764;2023-07-30T11:38:40;0.90;;;0.80;;
43801;SDS011;29429;51.074;13.764;2023-07-30T11:41:10;0.93;;;0.75;;
43801;SDS011;29429;51.074;13.764;2023-07-30T11:43:41;1.48;;;0.80;;
43801;SDS011;29429;51.074;13.764;2023-07-30T11:49:23;2.85;;;1.00;;
43801;SDS011;29429;51.074;13.764;2023-07-30T11:52:09;1.27;;;0.85;;
43801;SDS011;29429;51.074;13.764;2023-07-30T11:54:40;1.48;;;0.90;;
43801;SDS011;29429;51.074;13.764;2023-07-30T11:57:07;1.42;;;0.80;;
43801;SDS011;29429;51.074;13.764;2023-07-30T11:59:40;1.20;;;0.90;;
43801;SDS011;29429;51.074;13.764;2023-07-30T12:02:08;1.42;;;0.95;;
43801;SDS011;29429;51.074;13.764;2023-07-30T12:04:44;1.05;;;0.75;;
43801;SDS011;29429;51.074;13.764;2023-07-30T12:07:34;2.50;;;1.05;;
43801;SDS011;29429;51.074;13.764;2023-07-30T12:10:10;1.25;;;1.00;;
43801;SDS011;29429;51.074;13.764;2023-07-30T12:12:46;0.82;;;0.70;;
43801;SDS011;29429;51.074;13.764;2023-07-30T12:37:41;2.55;;;0.80;;
43801;SDS011;29429;51.074;13.764;2023-07-30T12:40:08;0.70;;;0.70;;
43801;SDS011;29429;51.074;13.764;2023-07-30T12:42:36;0.60;;;0.60;;
43801;SDS011;29429;51.074;13.764;2023-07-30T12:45:03;0.63;;;0.60;;
43801;SDS011;29429;51.074;13.764;2023-07-30T12:47:31;2.08;;;0.47;;
43801;SDS011;29429;51.074;13.764;2023-07-30T12:50:02;0.70;;;0.55;;
43801;SDS011;29429;51.074;13.764;2023-07-30T12:52:32;1.25;;;0.75;;
43801;SDS011;29429;51.074;13.764;2023-07-30T12:55:00;1.38;;;0.77;;
43801;SDS011;29429;51.074;13.764;2023-07-30T12:57:27;2.42;;;0.80;;
43801;SDS011;29429;51.074;13.764;2023-07-30T12:59:55;0.70;;;0.70;;
43801;SDS011;29429;51.074;13.764;2023-07-30T13:02:23;1.17;;;0.70;;
43801;SDS011;29429;51.074;13.764;2023-07-30T13:04:51;0.90;;;0.60;;
43801;SDS011;29429;51.074;13.764;2023-07-30T13:07:18;0.93;;;0.82;;
43801;SDS011;29429;51.074;13.764;2023-07-30T13:09:46;1.52;;;1.10;;
43801;SDS011;29429;51.074;13.764;2023-07-30T13:12:13;2.28;;;0.80;;
43801;SDS011;29429;51.074;13.764;2023-07-30T13:14:44;1.30;;;0.68;;
43801;SDS011;29429;51.074;13.764;2023-07-30T13:17:16;1.98;;;0.82;;
43801;SDS011;29429;51.074;13.764;2023-07-30T13:23:10;1.08;;;0.80;;
43801;SDS011;29429;51.074;13.764;2023-07-30T13:29:02;0.93;;;0.80;;
43801;SDS011;29429;51.074;13.764;2023-07-30T13:31:31;2.42;;;0.80;;
43801;SDS011;29429;51.074;13.764;2023-07-30T13:33:58;1.33;;;0.75;;
43801;SDS011;29429;51.074;13.764;2023-07-30T13:36:26;1.27;;;0.73;;
43801;SDS011;29429;51.074;13.764;2023-07-30T13:38:54;1.10;;;0.68;;
43801;SDS011;29429;51.074;13.764;2023-07-30T13:41:22;0.65;;;0.60;;
43801;SDS011;29429;51.074;13.764;2023-07-30T13:43:56;1.48;;;0.70;;
43801;SDS011;29429;51.074;13.764;2023-07-30T13:46:38;0.60;;;0.60;;
43801;SDS011;29429;51.074;13.764;2023-07-30T13:52:19;1.13;;;0.82;;
43801;SDS011;29429;51.074;13.764;2023-07-30T13:57:52;1.00;;;0.70;;
43801;SDS011;29429;51.074;13.764;2023-07-30T14:22:14;1.27;;;0.80;;
43801;SDS011;29429;51.074;13.764;2023-07-30T14:25:03;2.00;;;0.63;;
43801;SDS011;29429;51.074;13.764;2023-07-30T14:56:40;3.25;;;2.05;;
43801;SDS011;29429;51.074;13.764;2023-07-30T14:59:10;1.42;;;1.00;;
43801;SDS011;29429;51.074;13.764;2023-07-30T15:01:38;1.55;;;1.08;;
43801;SDS011;29429;51.074;13.764;2023-07-30T15:04:26;1.27;;;0.90;;
43801;SDS011;29429;51.074;13.764;2023-07-30T15:06:54;1.63;;;1.33;;
43801;SDS011;29429;51.074;13.764;2023-07-30T15:09:29;1.40;;;1.20;;
43801;SDS011;29429;51.074;13.764;2023-07-30T15:12:05;2.88;;;1.02;;
43801;SDS011;29429;51.074;13.764;2023-07-30T15:14:33;1.30;;;0.90;;
43801;SDS011;29429;51.074;13.764;2023-07-30T15:17:01;3.22;;;1.00;;
43801;SDS011;29429;51.074;13.764;2023-07-30T15:19:29;1.38;;;1.00;;
43801;SDS011;29429;51.074;13.764;2023-07-30T15:21:56;3.67;;;1.40;;
43801;SDS011;29429;51.074;13.764;2023-07-30T15:24:24;3.38;;;1.10;;
43801;SDS011;29429;51.074;13.764;2023-07-30T15:26:51;2.85;;;1.30;;
43801;SDS011;29429;51.074;13.764;2023-07-30T15:29:19;4.63;;;1.92;;
43801;SDS011;29429;51.074;13.764;2023-07-30T15:31:50;4.95;;;1.48;;
43801;SDS011;29429;51.074;13.764;2023-07-30T15:34:18;4.47;;;1.67;;
43801;SDS011;29429;51.074;13.764;2023-07-30T15:36:45;4.03;;;1.75;;
43801;SDS011;29429;51.074;13.764;2023-07-30T15:39:13;4.38;;;1.70;;
43801;SDS011;29429;51.074;13.764;2023-07-30T15:41:40;3.63;;;1.58;;
43801;SDS011;29429;51.074;13.764;2023-07-30T15:44:08;3.03;;;1.65;;
43801;SDS011;29429;51.074;13.764;2023-07-30T15:46:35;5.97;;;2.30;;
43801;SDS011;29429;51.074;13.764;2023-07-30T15:51:57;2.83;;;2.00;;
43801;SDS011;29429;51.074;13.764;2023-07-30T15:54:32;7.13;;;2.28;;
43801;SDS011;29429;51.074;13.764;2023-07-30T15:57:03;3.15;;;2.00;;
43801;SDS011;29429;51.074;13.764;2023-07-30T16:02:05;2.47;;;1.73;;
43801;SDS011;29429;51.074;13.764;2023-07-30T16:04:34;2.72;;;1.92;;
43801;SDS011;29429;51.074;13.764;2023-07-30T16:07:01;5.28;;;2.40;;
43801;SDS011;29429;51.074;13.764;2023-07-30T16:09:31;3.63;;;2.08;;
43801;SDS011;29429;51.074;13.764;2023-07-30T16:11:59;3.35;;;1.90;;
43801;SDS011;29429;51.074;13.764;2023-07-30T16:14:28;5.32;;;2.00;;
43801;SDS011;29429;51.074;13.764;2023-07-30T16:16:55;2.10;;;1.90;;
43801;SDS011;29429;51.074;13.764;2023-07-30T16:19:23;3.50;;;2.08;;
43801;SDS011;29429;51.074;13.764;2023-07-30T16:21:51;3.78;;;2.33;;
43801;SDS011;29429;51.074;13.764;2023-07-30T16:25:10;3.13;;;2.20;;
43801;SDS011;29429;51.074;13.764;2023-07-30T16:27:38;2.80;;;2.30;;
43801;SDS011;29429;51.074;13.764;2023-07-30T16:30:06;4.43;;;2.30;;
43801;SDS011;29429;51.074;13.764;2023-07-30T16:32:37;3.10;;;2.10;;
43801;SDS011;29429;51.074;13.764;2023-07-30T16:35:07;4.15;;;2.50;;
43801;SDS011;29429;51.074;13.764;2023-07-30T16:37:36;3.13;;;2.15;;
43801;SDS011;29429;51.074;13.764;2023-07-30T16:40:04;4.65;;;2.10;;
43801;SDS011;29429;51.074;13.764;2023-07-30T16:42:33;3.40;;;2.08;;
43801;SDS011;29429;51.074;13.764;2023-07-30T16:45:01;3.42;;;2.42;;
43801;SDS011;29429;51.074;13.764;2023-07-30T16:47:28;6.40;;;2.80;;
43801;SDS011;29429;51.074;13.764;2023-07-30T16:49:56;3.70;;;2.30;;